sensor_id;sensor_type;location;lat;lon;timestamp;P1;durP1;ratioP1;P2;durP2;ratioP2
59786;SDS011;45672;51.612;5.536;2023-04-25T00:01:01;12.77;;;4.40;;
59786;SDS011;45672;51.612;5.536;2023-04-25T00:03:27;10.52;;;4.30;;
59786;SDS011;45672;51.612;5.536;2023-04-25T00:05:54;16.23;;;4.20;;
59786;SDS011;45672;51.612;5.536;2023-04-25T00:08:21;16.48;;;4.45;;
59786;SDS011;45672;51.612;5.536;2023-04-25T00:10:47;7.53;;;3.92;;
59786;SDS011;45672;51.612;5.536;2023-04-25T00:13:13;10.02;;;3.80;;
59786;SDS011;45672;51.612;5.536;2023-04-25T00:15:39;13.05;;;4.40;;
59786;SDS011;45672;51.612;5.536;2023-04-25T00:18:06;9.60;;;3.88;;
59786;SDS011;45672;51.612;5.536;2023-04-25T00:20:32;8.90;;;3.70;;
59786;SDS011;45672;51.612;5.536;2023-04-25T00:22:57;12.05;;;3.72;;
59786;SDS011;45672;51.612;5.536;2023-04-25T00:25:22;9.43;;;3.63;;
59786;SDS011;45672;51.612;5.536;2023-04-25T00:27:48;15.13;;;3.60;;
59786;SDS011;45672;51.612;5.536;2023-04-25T00:30:13;11.55;;;3.70;;
59786;SDS011;45672;51.612;5.536;2023-04-25T00:32:39;5.95;;;3.40;;
59786;SDS011;45672;51.612;5.536;2023-04-25T00:35:04;7.88;;;3.83;;
59786;SDS011;45672;51.612;5.536;2023-04-25T00:37:30;10.15;;;3.78;;
59786;SDS011;45672;51.612;5.536;2023-04-25T00:39:57;11.50;;;4.03;;
59786;SDS011;45672;51.612;5.536;2023-04-25T00:42:23;11.20;;;3.75;;
59786;SDS011;45672;51.612;5.536;2023-04-25T00:44:51;7.85;;;3.55;;
59786;SDS011;45672;51.612;5.536;2023-04-25T00:47:17;7.60;;;3.55;;
59786;SDS011;45672;51.612;5.536;2023-04-25T00:49:43;10.80;;;4.30;;
59786;SDS011;45672;51.612;5.536;2023-04-25T00:52:08;15.80;;;4.50;;
59786;SDS011;45672;51.612;5.536;2023-04-25T00:54:34;18.45;;;4.43;;
59786;SDS011;45672;51.612;5.536;2023-04-25T00:56:59;17.30;;;4.53;;
59786;SDS011;45672;51.612;5.536;2023-04-25T00:59:25;14.23;;;4.88;;
59786;SDS011;45672;51.612;5.536;2023-04-25T01:01:52;12.27;;;4.32;;
59786;SDS011;45672;51.612;5.536;2023-04-25T01:04:18;17.65;;;4.72;;
59786;SDS011;45672;51.612;5.536;2023-04-25T01:06:43;9.98;;;4.00;;
59786;SDS011;45672;51.612;5.536;2023-04-25T01:09:09;10.23;;;3.97;;
59786;SDS011;45672;51.612;5.536;2023-04-25T01:11:35;16.33;;;5.10;;
59786;SDS011;45672;51.612;5.536;2023-04-25T01:14:00;12.23;;;4.22;;
59786;SDS011;45672;51.612;5.536;2023-04-25T01:16:27;15.40;;;3.80;;
59786;SDS011;45672;51.612;5.536;2023-04-25T01:18:52;12.02;;;3.72;;
59786;SDS011;45672;51.612;5.536;2023-04-25T01:21:19;11.15;;;4.00;;
59786;SDS011;45672;51.612;5.536;2023-04-25T01:23:44;15.20;;;3.95;;
59786;SDS011;45672;51.612;5.536;2023-04-25T01:26:10;15.05;;;4.60;;
59786;SDS011;45672;51.612;5.536;2023-04-25T01:28:37;12.90;;;4.40;;
59786;SDS011;45672;51.612;5.536;2023-04-25T01:31:06;16.02;;;4.18;;
59786;SDS011;45672;51.612;5.536;2023-04-25T01:33:31;16.33;;;4.72;;
59786;SDS011;45672;51.612;5.536;2023-04-25T01:35:57;13.98;;;4.45;;
59786;SDS011;45672;51.612;5.536;2023-04-25T01:38:22;13.40;;;4.85;;
59786;SDS011;45672;51.612;5.536;2023-04-25T01:40:48;10.27;;;4.10;;
59786;SDS011;45672;51.612;5.536;2023-04-25T01:43:15;11.45;;;4.40;;
59786;SDS011;45672;51.612;5.536;2023-04-25T01:45:41;15.10;;;4.57;;
59786;SDS011;45672;51.612;5.536;2023-04-25T01:48:08;18.88;;;4.68;;
59786;SDS011;45672;51.612;5.536;2023-04-25T01:50:33;12.18;;;4.68;;
59786;SDS011;45672;51.612;5.536;2023-04-25T01:52:59;16.60;;;5.63;;
59786;SDS011;45672;51.612;5.536;2023-04-25T01:55:25;17.02;;;6.88;;
59786;SDS011;45672;51.612;5.536;2023-04-25T01:57:51;22.10;;;8.02;;
59786;SDS011;45672;51.612;5.536;2023-04-25T02:00:17;20.75;;;7.55;;
59786;SDS011;45672;51.612;5.536;2023-04-25T02:02:43;21.23;;;6.30;;
59786;SDS011;45672;51.612;5.536;2023-04-25T02:05:08;11.82;;;5.03;;
59786;SDS011;45672;51.612;5.536;2023-04-25T02:07:33;12.63;;;4.75;;
59786;SDS011;45672;51.612;5.536;2023-04-25T02:09:59;14.07;;;4.45;;
59786;SDS011;45672;51.612;5.536;2023-04-25T02:12:24;13.55;;;4.57;;
59786;SDS011;45672;51.612;5.536;2023-04-25T02:14:51;14.38;;;4.40;;
59786;SDS011;45672;51.612;5.536;2023-04-25T02:17:16;18.88;;;5.13;;
59786;SDS011;45672;51.612;5.536;2023-04-25T02:19:42;20.05;;;4.75;;
59786;SDS011;45672;51.612;5.536;2023-04-25T02:22:08;16.92;;;5.15;;
59786;SDS011;45672;51.612;5.536;2023-04-25T02:24:33;14.68;;;4.57;;
59786;SDS011;45672;51.612;5.536;2023-04-25T02:26:59;22.15;;;4.82;;
59786;SDS011;45672;51.612;5.536;2023-04-25T02:29:25;25.33;;;7.15;;
59786;SDS011;45672;51.612;5.536;2023-04-25T02:31:50;14.68;;;4.78;;
59786;SDS011;45672;51.612;5.536;2023-04-25T02:34:15;14.23;;;5.00;;
59786;SDS011;45672;51.612;5.536;2023-04-25T02:36:41;12.43;;;4.50;;
59786;SDS011;45672;51.612;5.536;2023-04-25T02:39:06;15.80;;;5.10;;
59786;SDS011;45672;51.612;5.536;2023-04-25T02:41:31;12.93;;;4.68;;
59786;SDS011;45672;51.612;5.536;2023-04-25T02:43:57;15.27;;;5.35;;
59786;SDS011;45672;51.612;5.536;2023-04-25T02:46:22;17.02;;;5.90;;
59786;SDS011;45672;51.612;5.536;2023-04-25T02:48:48;17.05;;;4.72;;
59786;SDS011;45672;51.612;5.536;2023-04-25T02:51:13;18.60;;;5.28;;
59786;SDS011;45672;51.612;5.536;2023-04-25T02:53:38;16.20;;;4.82;;
59786;SDS011;45672;51.612;5.536;2023-04-25T02:56:04;12.82;;;4.75;;
59786;SDS011;45672;51.612;5.536;2023-04-25T02:58:30;14.73;;;5.45;;
59786;SDS011;45672;51.612;5.536;2023-04-25T03:00:55;15.98;;;4.78;;
59786;SDS011;45672;51.612;5.536;2023-04-25T03:03:20;14.90;;;5.05;;
59786;SDS011;45672;51.612;5.536;2023-04-25T03:05:49;19.48;;;4.50;;
59786;SDS011;45672;51.612;5.536;2023-04-25T03:08:16;15.48;;;4.45;;
59786;SDS011;45672;51.612;5.536;2023-04-25T03:10:43;23.33;;;4.75;;
59786;SDS011;45672;51.612;5.536;2023-04-25T03:13:09;15.02;;;4.68;;
59786;SDS011;45672;51.612;5.536;2023-04-25T03:15:34;11.57;;;4.80;;
59786;SDS011;45672;51.612;5.536;2023-04-25T03:18:00;14.20;;;5.20;;
59786;SDS011;45672;51.612;5.536;2023-04-25T03:20:26;13.18;;;4.55;;
59786;SDS011;45672;51.612;5.536;2023-04-25T03:22:52;16.17;;;4.97;;
59786;SDS011;45672;51.612;5.536;2023-04-25T03:25:17;14.27;;;4.65;;
59786;SDS011;45672;51.612;5.536;2023-04-25T03:27:43;19.05;;;4.72;;
59786;SDS011;45672;51.612;5.536;2023-04-25T03:30:08;14.20;;;5.07;;
59786;SDS011;45672;51.612;5.536;2023-04-25T03:32:34;14.40;;;5.10;;
59786;SDS011;45672;51.612;5.536;2023-04-25T03:34:59;24.05;;;5.05;;
59786;SDS011;45672;51.612;5.536;2023-04-25T03:37:25;18.60;;;5.00;;
59786;SDS011;45672;51.612;5.536;2023-04-25T03:39:53;14.95;;;5.00;;
59786;SDS011;45672;51.612;5.536;2023-04-25T03:42:18;11.65;;;4.72;;
59786;SDS011;45672;51.612;5.536;2023-04-25T03:44:44;20.73;;;5.53;;
59786;SDS011;45672;51.612;5.536;2023-04-25T03:47:10;22.10;;;5.28;;
59786;SDS011;45672;51.612;5.536;2023-04-25T03:49:35;14.85;;;5.75;;
59786;SDS011;45672;51.612;5.536;2023-04-25T03:52:01;20.50;;;6.90;;
59786;SDS011;45672;51.612;5.536;2023-04-25T03:54:27;23.35;;;7.30;;
59786;SDS011;45672;51.612;5.536;2023-04-25T03:56:58;19.08;;;7.57;;
59786;SDS011;45672;51.612;5.536;2023-04-25T03:59:23;25.23;;;7.93;;
59786;SDS011;45672;51.612;5.536;2023-04-25T04:01:50;25.05;;;7.65;;
59786;SDS011;45672;51.612;5.536;2023-04-25T04:04:15;31.02;;;8.02;;
59786;SDS011;45672;51.612;5.536;2023-04-25T04:06:55;25.38;;;7.15;;
59786;SDS011;45672;51.612;5.536;2023-04-25T04:09:21;22.08;;;7.22;;
59786;SDS011;45672;51.612;5.536;2023-04-25T04:11:46;24.75;;;6.97;;
59786;SDS011;45672;51.612;5.536;2023-04-25T04:14:12;24.27;;;7.03;;
59786;SDS011;45672;51.612;5.536;2023-04-25T04:16:37;27.63;;;6.63;;
59786;SDS011;45672;51.612;5.536;2023-04-25T04:19:02;32.53;;;7.95;;
59786;SDS011;45672;51.612;5.536;2023-04-25T04:21:31;23.33;;;8.95;;
59786;SDS011;45672;51.612;5.536;2023-04-25T04:23:56;25.90;;;8.73;;
59786;SDS011;45672;51.612;5.536;2023-04-25T04:26:22;25.65;;;8.23;;
59786;SDS011;45672;51.612;5.536;2023-04-25T04:28:53;21.60;;;8.25;;
59786;SDS011;45672;51.612;5.536;2023-04-25T04:31:22;18.77;;;7.13;;
59786;SDS011;45672;51.612;5.536;2023-04-25T04:33:48;19.35;;;6.93;;
59786;SDS011;45672;51.612;5.536;2023-04-25T04:36:14;16.40;;;5.50;;
59786;SDS011;45672;51.612;5.536;2023-04-25T04:38:40;17.13;;;5.35;;
59786;SDS011;45672;51.612;5.536;2023-04-25T04:41:06;19.67;;;5.75;;
59786;SDS011;45672;51.612;5.536;2023-04-25T04:43:31;12.43;;;4.88;;
59786;SDS011;45672;51.612;5.536;2023-04-25T04:45:58;20.95;;;4.82;;
59786;SDS011;45672;51.612;5.536;2023-04-25T04:48:25;18.23;;;5.20;;
59786;SDS011;45672;51.612;5.536;2023-04-25T04:50:51;19.60;;;5.03;;
59786;SDS011;45672;51.612;5.536;2023-04-25T04:53:16;23.27;;;5.07;;
59786;SDS011;45672;51.612;5.536;2023-04-25T04:55:41;18.67;;;5.90;;
59786;SDS011;45672;51.612;5.536;2023-04-25T04:58:07;8.60;;;4.65;;
59786;SDS011;45672;51.612;5.536;2023-04-25T05:00:33;15.30;;;5.68;;
59786;SDS011;45672;51.612;5.536;2023-04-25T05:02:58;15.55;;;5.10;;
59786;SDS011;45672;51.612;5.536;2023-04-25T05:05:23;19.92;;;4.93;;
59786;SDS011;45672;51.612;5.536;2023-04-25T05:07:49;20.85;;;6.20;;
59786;SDS011;45672;51.612;5.536;2023-04-25T05:10:14;16.75;;;5.57;;
59786;SDS011;45672;51.612;5.536;2023-04-25T05:12:40;20.27;;;5.63;;
59786;SDS011;45672;51.612;5.536;2023-04-25T05:15:05;18.88;;;5.20;;
59786;SDS011;45672;51.612;5.536;2023-04-25T05:17:31;15.80;;;4.85;;
59786;SDS011;45672;51.612;5.536;2023-04-25T05:19:57;17.52;;;5.82;;
59786;SDS011;45672;51.612;5.536;2023-04-25T05:22:23;12.75;;;4.97;;
59786;SDS011;45672;51.612;5.536;2023-04-25T05:24:48;22.77;;;5.10;;
59786;SDS011;45672;51.612;5.536;2023-04-25T05:27:16;13.35;;;4.97;;
59786;SDS011;45672;51.612;5.536;2023-04-25T05:29:41;14.07;;;4.82;;
59786;SDS011;45672;51.612;5.536;2023-04-25T05:32:07;11.88;;;4.80;;
59786;SDS011;45672;51.612;5.536;2023-04-25T05:34:33;15.65;;;4.90;;
59786;SDS011;45672;51.612;5.536;2023-04-25T05:36:58;18.08;;;5.40;;
59786;SDS011;45672;51.612;5.536;2023-04-25T05:39:23;13.63;;;4.60;;
59786;SDS011;45672;51.612;5.536;2023-04-25T05:41:49;16.08;;;5.35;;
59786;SDS011;45672;51.612;5.536;2023-04-25T05:44:14;12.93;;;4.10;;
59786;SDS011;45672;51.612;5.536;2023-04-25T05:46:40;14.65;;;5.05;;
59786;SDS011;45672;51.612;5.536;2023-04-25T05:49:06;16.80;;;5.25;;
59786;SDS011;45672;51.612;5.536;2023-04-25T05:51:31;14.32;;;4.82;;
59786;SDS011;45672;51.612;5.536;2023-04-25T05:53:57;12.55;;;4.25;;
59786;SDS011;45672;51.612;5.536;2023-04-25T05:56:24;15.45;;;4.70;;
59786;SDS011;45672;51.612;5.536;2023-04-25T05:58:49;18.23;;;4.75;;
59786;SDS011;45672;51.612;5.536;2023-04-25T06:01:14;13.57;;;4.47;;
59786;SDS011;45672;51.612;5.536;2023-04-25T06:03:40;12.00;;;4.75;;
59786;SDS011;45672;51.612;5.536;2023-04-25T06:06:07;16.42;;;4.50;;
59786;SDS011;45672;51.612;5.536;2023-04-25T06:08:33;12.18;;;4.53;;
59786;SDS011;45672;51.612;5.536;2023-04-25T06:10:58;15.50;;;4.70;;
59786;SDS011;45672;51.612;5.536;2023-04-25T06:13:24;12.45;;;4.10;;
59786;SDS011;45672;51.612;5.536;2023-04-25T06:15:49;13.77;;;4.05;;
59786;SDS011;45672;51.612;5.536;2023-04-25T06:18:14;14.15;;;4.00;;
59786;SDS011;45672;51.612;5.536;2023-04-25T06:20:40;10.75;;;3.85;;
59786;SDS011;45672;51.612;5.536;2023-04-25T06:23:05;7.47;;;2.80;;
59786;SDS011;45672;51.612;5.536;2023-04-25T06:25:30;6.78;;;3.22;;
59786;SDS011;45672;51.612;5.536;2023-04-25T06:27:56;10.23;;;3.13;;
59786;SDS011;45672;51.612;5.536;2023-04-25T06:30:21;7.07;;;3.15;;
59786;SDS011;45672;51.612;5.536;2023-04-25T06:32:50;8.32;;;2.72;;
59786;SDS011;45672;51.612;5.536;2023-04-25T06:35:16;12.35;;;2.88;;
59786;SDS011;45672;51.612;5.536;2023-04-25T06:37:41;5.78;;;2.53;;
59786;SDS011;45672;51.612;5.536;2023-04-25T06:40:06;7.55;;;2.33;;
59786;SDS011;45672;51.612;5.536;2023-04-25T06:42:47;6.18;;;2.30;;
59786;SDS011;45672;51.612;5.536;2023-04-25T06:45:13;8.50;;;2.50;;
59786;SDS011;45672;51.612;5.536;2023-04-25T06:47:41;8.18;;;2.38;;
59786;SDS011;45672;51.612;5.536;2023-04-25T06:50:06;12.15;;;2.65;;
59786;SDS011;45672;51.612;5.536;2023-04-25T06:52:32;7.47;;;1.92;;
59786;SDS011;45672;51.612;5.536;2023-04-25T06:54:57;7.82;;;2.33;;
59786;SDS011;45672;51.612;5.536;2023-04-25T06:57:23;13.13;;;2.60;;
59786;SDS011;45672;51.612;5.536;2023-04-25T06:59:48;6.90;;;1.90;;
59786;SDS011;45672;51.612;5.536;2023-04-25T07:02:13;9.70;;;1.88;;
59786;SDS011;45672;51.612;5.536;2023-04-25T07:04:39;7.82;;;2.33;;
59786;SDS011;45672;51.612;5.536;2023-04-25T07:07:04;6.60;;;2.00;;
59786;SDS011;45672;51.612;5.536;2023-04-25T07:09:31;7.32;;;2.28;;
59786;SDS011;45672;51.612;5.536;2023-04-25T07:11:58;8.00;;;2.17;;
59786;SDS011;45672;51.612;5.536;2023-04-25T07:14:26;10.50;;;2.22;;
59786;SDS011;45672;51.612;5.536;2023-04-25T07:16:51;9.48;;;2.10;;
59786;SDS011;45672;51.612;5.536;2023-04-25T07:19:16;5.68;;;2.00;;
59786;SDS011;45672;51.612;5.536;2023-04-25T07:21:54;5.43;;;1.92;;
59786;SDS011;45672;51.612;5.536;2023-04-25T07:24:20;4.63;;;2.13;;
59786;SDS011;45672;51.612;5.536;2023-04-25T07:26:45;5.43;;;1.92;;
59786;SDS011;45672;51.612;5.536;2023-04-25T07:29:10;6.72;;;1.85;;
59786;SDS011;45672;51.612;5.536;2023-04-25T07:31:36;5.28;;;2.40;;
59786;SDS011;45672;51.612;5.536;2023-04-25T07:34:01;7.43;;;2.25;;
59786;SDS011;45672;51.612;5.536;2023-04-25T07:36:26;6.63;;;2.10;;
59786;SDS011;45672;51.612;5.536;2023-04-25T07:38:52;7.43;;;1.95;;
59786;SDS011;45672;51.612;5.536;2023-04-25T07:41:17;5.32;;;2.13;;
59786;SDS011;45672;51.612;5.536;2023-04-25T07:43:42;4.28;;;1.70;;
59786;SDS011;45672;51.612;5.536;2023-04-25T07:46:08;6.20;;;1.90;;
59786;SDS011;45672;51.612;5.536;2023-04-25T07:48:33;4.10;;;1.63;;
59786;SDS011;45672;51.612;5.536;2023-04-25T07:50:58;12.60;;;2.00;;
59786;SDS011;45672;51.612;5.536;2023-04-25T07:53:24;5.47;;;1.80;;
59786;SDS011;45672;51.612;5.536;2023-04-25T07:55:49;7.90;;;2.10;;
59786;SDS011;45672;51.612;5.536;2023-04-25T07:58:15;5.93;;;1.63;;
59786;SDS011;45672;51.612;5.536;2023-04-25T08:00:40;9.38;;;2.10;;
59786;SDS011;45672;51.612;5.536;2023-04-25T08:03:06;6.55;;;2.22;;
59786;SDS011;45672;51.612;5.536;2023-04-25T08:05:32;10.05;;;1.88;;
59786;SDS011;45672;51.612;5.536;2023-04-25T08:07:57;6.88;;;2.25;;
59786;SDS011;45672;51.612;5.536;2023-04-25T08:10:32;3.50;;;1.70;;
59786;SDS011;45672;51.612;5.536;2023-04-25T08:12:58;9.23;;;2.50;;
59786;SDS011;45672;51.612;5.536;2023-04-25T08:15:24;9.60;;;2.05;;
59786;SDS011;45672;51.612;5.536;2023-04-25T08:17:50;8.50;;;2.00;;
59786;SDS011;45672;51.612;5.536;2023-04-25T08:20:15;12.95;;;1.88;;
59786;SDS011;45672;51.612;5.536;2023-04-25T08:22:42;6.13;;;1.52;;
59786;SDS011;45672;51.612;5.536;2023-04-25T08:25:07;8.52;;;1.95;;
59786;SDS011;45672;51.612;5.536;2023-04-25T08:27:33;6.75;;;2.28;;
59786;SDS011;45672;51.612;5.536;2023-04-25T08:30:04;7.78;;;2.35;;
59786;SDS011;45672;51.612;5.536;2023-04-25T08:32:30;6.78;;;1.95;;
59786;SDS011;45672;51.612;5.536;2023-04-25T08:34:56;8.85;;;2.05;;
59786;SDS011;45672;51.612;5.536;2023-04-25T08:37:21;8.00;;;1.98;;
59786;SDS011;45672;51.612;5.536;2023-04-25T08:39:47;5.03;;;1.65;;
59786;SDS011;45672;51.612;5.536;2023-04-25T08:42:17;6.43;;;1.80;;
59786;SDS011;45672;51.612;5.536;2023-04-25T08:44:43;10.10;;;3.17;;
59786;SDS011;45672;51.612;5.536;2023-04-25T08:47:10;11.32;;;2.33;;
59786;SDS011;45672;51.612;5.536;2023-04-25T08:49:35;10.00;;;2.10;;
59786;SDS011;45672;51.612;5.536;2023-04-25T08:52:02;4.43;;;1.98;;
59786;SDS011;45672;51.612;5.536;2023-04-25T08:54:30;10.02;;;2.58;;
59786;SDS011;45672;51.612;5.536;2023-04-25T08:56:57;8.52;;;1.90;;
59786;SDS011;45672;51.612;5.536;2023-04-25T08:59:26;4.50;;;1.67;;
59786;SDS011;45672;51.612;5.536;2023-04-25T09:02:10;6.20;;;2.08;;
59786;SDS011;45672;51.612;5.536;2023-04-25T09:04:39;4.95;;;2.40;;
59786;SDS011;45672;51.612;5.536;2023-04-25T09:07:05;8.93;;;2.72;;
59786;SDS011;45672;51.612;5.536;2023-04-25T09:09:31;10.52;;;2.40;;
59786;SDS011;45672;51.612;5.536;2023-04-25T09:11:56;6.78;;;2.38;;
59786;SDS011;45672;51.612;5.536;2023-04-25T09:14:26;7.30;;;2.38;;
59786;SDS011;45672;51.612;5.536;2023-04-25T09:16:57;14.25;;;2.50;;
59786;SDS011;45672;51.612;5.536;2023-04-25T09:19:34;11.93;;;2.30;;
59786;SDS011;45672;51.612;5.536;2023-04-25T09:22:03;7.78;;;1.95;;
59786;SDS011;45672;51.612;5.536;2023-04-25T09:24:30;8.98;;;1.75;;
59786;SDS011;45672;51.612;5.536;2023-04-25T09:27:04;6.32;;;1.63;;
59786;SDS011;45672;51.612;5.536;2023-04-25T09:29:40;3.92;;;1.58;;
59786;SDS011;45672;51.612;5.536;2023-04-25T09:32:10;2.28;;;1.25;;
59786;SDS011;45672;51.612;5.536;2023-04-25T09:34:40;5.90;;;1.30;;
59786;SDS011;45672;51.612;5.536;2023-04-25T09:37:08;3.88;;;1.30;;
59786;SDS011;45672;51.612;5.536;2023-04-25T09:39:37;8.82;;;1.13;;
59786;SDS011;45672;51.612;5.536;2023-04-25T09:42:03;4.32;;;1.40;;
59786;SDS011;45672;51.612;5.536;2023-04-25T09:44:29;4.05;;;1.60;;
59786;SDS011;45672;51.612;5.536;2023-04-25T09:46:55;3.75;;;1.58;;
59786;SDS011;45672;51.612;5.536;2023-04-25T09:49:20;5.10;;;1.60;;
59786;SDS011;45672;51.612;5.536;2023-04-25T09:51:55;4.75;;;1.50;;
59786;SDS011;45672;51.612;5.536;2023-04-25T09:54:22;7.28;;;1.83;;
59786;SDS011;45672;51.612;5.536;2023-04-25T09:56:48;3.13;;;1.38;;
59786;SDS011;45672;51.612;5.536;2023-04-25T09:59:16;3.35;;;1.48;;
59786;SDS011;45672;51.612;5.536;2023-04-25T10:01:45;5.45;;;1.30;;
59786;SDS011;45672;51.612;5.536;2023-04-25T10:04:11;4.18;;;1.80;;
59786;SDS011;45672;51.612;5.536;2023-04-25T10:06:37;5.30;;;1.35;;
59786;SDS011;45672;51.612;5.536;2023-04-25T10:09:03;3.40;;;1.20;;
59786;SDS011;45672;51.612;5.536;2023-04-25T10:11:29;2.92;;;1.13;;
59786;SDS011;45672;51.612;5.536;2023-04-25T10:13:56;2.75;;;1.30;;
59786;SDS011;45672;51.612;5.536;2023-04-25T10:16:22;5.90;;;1.63;;
59786;SDS011;45672;51.612;5.536;2023-04-25T10:18:49;10.20;;;2.33;;
59786;SDS011;45672;51.612;5.536;2023-04-25T10:21:15;8.68;;;3.38;;
59786;SDS011;45672;51.612;5.536;2023-04-25T10:23:41;2.28;;;1.40;;
59786;SDS011;45672;51.612;5.536;2023-04-25T10:26:07;4.72;;;1.27;;
59786;SDS011;45672;51.612;5.536;2023-04-25T10:31:25;3.13;;;1.30;;
59786;SDS011;45672;51.612;5.536;2023-04-25T10:33:51;17.73;;;8.30;;
59786;SDS011;45672;51.612;5.536;2023-04-25T10:36:20;14.73;;;5.57;;
59786;SDS011;45672;51.612;5.536;2023-04-25T10:38:47;7.57;;;4.05;;
59786;SDS011;45672;51.612;5.536;2023-04-25T10:41:16;9.88;;;3.03;;
59786;SDS011;45672;51.612;5.536;2023-04-25T10:43:44;5.00;;;2.38;;
59786;SDS011;45672;51.612;5.536;2023-04-25T10:46:14;24.65;;;12.23;;
59786;SDS011;45672;51.612;5.536;2023-04-25T10:49:27;4.30;;;2.20;;
59786;SDS011;45672;51.612;5.536;2023-04-25T10:51:34;9.70;;;4.72;;
59786;SDS011;45672;51.612;5.536;2023-04-25T10:54:02;7.15;;;2.72;;
59786;SDS011;45672;51.612;5.536;2023-04-25T10:56:41;4.47;;;2.17;;
59786;SDS011;45672;51.612;5.536;2023-04-25T10:59:13;5.10;;;2.20;;
59786;SDS011;45672;51.612;5.536;2023-04-25T11:01:43;4.10;;;1.55;;
59786;SDS011;45672;51.612;5.536;2023-04-25T11:04:22;6.13;;;2.08;;
59786;SDS011;45672;51.612;5.536;2023-04-25T11:07:00;3.63;;;2.15;;
59786;SDS011;45672;51.612;5.536;2023-04-25T11:09:27;5.50;;;2.03;;
59786;SDS011;45672;51.612;5.536;2023-04-25T11:11:57;8.30;;;1.65;;
59786;SDS011;45672;51.612;5.536;2023-04-25T11:14:23;4.53;;;1.80;;
59786;SDS011;45672;51.612;5.536;2023-04-25T11:16:58;11.38;;;5.47;;
59786;SDS011;45672;51.612;5.536;2023-04-25T11:19:24;4.78;;;1.60;;
59786;SDS011;45672;51.612;5.536;2023-04-25T11:21:57;3.65;;;1.90;;
59786;SDS011;45672;51.612;5.536;2023-04-25T11:24:27;8.85;;;1.98;;
59786;SDS011;45672;51.612;5.536;2023-04-25T11:26:53;4.72;;;1.92;;
59786;SDS011;45672;51.612;5.536;2023-04-25T11:29:22;5.78;;;1.83;;
59786;SDS011;45672;51.612;5.536;2023-04-25T11:31:48;5.63;;;1.58;;
59786;SDS011;45672;51.612;5.536;2023-04-25T11:34:17;5.18;;;1.65;;
59786;SDS011;45672;51.612;5.536;2023-04-25T11:36:43;3.90;;;1.45;;
59786;SDS011;45672;51.612;5.536;2023-04-25T11:39:10;10.48;;;2.40;;
59786;SDS011;45672;51.612;5.536;2023-04-25T11:41:36;5.55;;;3.00;;
59786;SDS011;45672;51.612;5.536;2023-04-25T11:44:02;16.65;;;7.07;;
59786;SDS011;45672;51.612;5.536;2023-04-25T11:46:28;8.02;;;1.70;;
59786;SDS011;45672;51.612;5.536;2023-04-25T11:48:54;4.47;;;1.67;;
59786;SDS011;45672;51.612;5.536;2023-04-25T11:51:21;4.55;;;1.80;;
59786;SDS011;45672;51.612;5.536;2023-04-25T11:53:46;4.85;;;1.42;;
59786;SDS011;45672;51.612;5.536;2023-04-25T11:56:11;3.45;;;1.27;;
59786;SDS011;45672;51.612;5.536;2023-04-25T12:01:32;4.15;;;1.40;;
59786;SDS011;45672;51.612;5.536;2023-04-25T12:03:58;5.72;;;1.80;;
59786;SDS011;45672;51.612;5.536;2023-04-25T12:06:36;4.80;;;1.40;;
59786;SDS011;45672;51.612;5.536;2023-04-25T12:09:06;4.75;;;1.33;;
59786;SDS011;45672;51.612;5.536;2023-04-25T12:11:41;3.58;;;1.00;;
59786;SDS011;45672;51.612;5.536;2023-04-25T12:14:10;6.88;;;1.25;;
59786;SDS011;45672;51.612;5.536;2023-04-25T12:19:18;2.97;;;1.27;;
59786;SDS011;45672;51.612;5.536;2023-04-25T12:21:45;3.45;;;1.40;;
59786;SDS011;45672;51.612;5.536;2023-04-25T12:24:21;3.60;;;0.98;;
59786;SDS011;45672;51.612;5.536;2023-04-25T12:26:51;4.88;;;1.33;;
59786;SDS011;45672;51.612;5.536;2023-04-25T12:29:19;3.33;;;1.25;;
59786;SDS011;45672;51.612;5.536;2023-04-25T12:31:49;4.60;;;1.20;;
59786;SDS011;45672;51.612;5.536;2023-04-25T12:34:16;4.15;;;1.30;;
59786;SDS011;45672;51.612;5.536;2023-04-25T12:36:41;3.22;;;1.10;;
59786;SDS011;45672;51.612;5.536;2023-04-25T12:39:07;2.90;;;1.33;;
59786;SDS011;45672;51.612;5.536;2023-04-25T12:41:32;4.85;;;2.92;;
59786;SDS011;45672;51.612;5.536;2023-04-25T12:43:58;7.32;;;1.52;;
59786;SDS011;45672;51.612;5.536;2023-04-25T12:46:24;2.92;;;1.30;;
59786;SDS011;45672;51.612;5.536;2023-04-25T12:48:49;9.75;;;1.90;;
59786;SDS011;45672;51.612;5.536;2023-04-25T12:51:15;8.15;;;1.60;;
59786;SDS011;45672;51.612;5.536;2023-04-25T12:53:40;8.57;;;1.77;;
59786;SDS011;45672;51.612;5.536;2023-04-25T12:56:06;5.63;;;1.90;;
59786;SDS011;45672;51.612;5.536;2023-04-25T12:58:33;3.55;;;1.88;;
59786;SDS011;45672;51.612;5.536;2023-04-25T13:00:58;6.00;;;1.67;;
59786;SDS011;45672;51.612;5.536;2023-04-25T13:03:24;5.88;;;1.77;;
59786;SDS011;45672;51.612;5.536;2023-04-25T13:05:50;5.28;;;1.90;;
59786;SDS011;45672;51.612;5.536;2023-04-25T13:08:17;6.32;;;1.70;;
59786;SDS011;45672;51.612;5.536;2023-04-25T13:10:42;6.35;;;2.45;;
59786;SDS011;45672;51.612;5.536;2023-04-25T13:13:07;4.18;;;1.50;;
59786;SDS011;45672;51.612;5.536;2023-04-25T13:15:33;4.22;;;2.30;;
59786;SDS011;45672;51.612;5.536;2023-04-25T13:17:59;3.08;;;1.40;;
59786;SDS011;45672;51.612;5.536;2023-04-25T13:20:24;3.10;;;1.27;;
59786;SDS011;45672;51.612;5.536;2023-04-25T13:22:49;4.15;;;1.42;;
59786;SDS011;45672;51.612;5.536;2023-04-25T13:25:15;4.13;;;1.60;;
59786;SDS011;45672;51.612;5.536;2023-04-25T13:27:41;3.22;;;1.70;;
59786;SDS011;45672;51.612;5.536;2023-04-25T13:30:09;5.70;;;1.65;;
59786;SDS011;45672;51.612;5.536;2023-04-25T13:32:35;6.80;;;1.65;;
59786;SDS011;45672;51.612;5.536;2023-04-25T13:35:01;7.72;;;2.92;;
59786;SDS011;45672;51.612;5.536;2023-04-25T13:37:31;14.15;;;3.03;;
59786;SDS011;45672;51.612;5.536;2023-04-25T13:40:01;6.00;;;2.83;;
59786;SDS011;45672;51.612;5.536;2023-04-25T13:42:29;3.75;;;1.67;;
59786;SDS011;45672;51.612;5.536;2023-04-25T13:44:55;8.27;;;1.70;;
59786;SDS011;45672;51.612;5.536;2023-04-25T13:47:20;7.00;;;1.55;;
59786;SDS011;45672;51.612;5.536;2023-04-25T13:49:46;6.85;;;1.52;;
59786;SDS011;45672;51.612;5.536;2023-04-25T13:52:12;8.82;;;1.50;;
59786;SDS011;45672;51.612;5.536;2023-04-25T13:54:37;4.03;;;1.55;;
59786;SDS011;45672;51.612;5.536;2023-04-25T13:57:02;4.85;;;2.65;;
59786;SDS011;45672;51.612;5.536;2023-04-25T13:59:27;6.25;;;1.80;;
59786;SDS011;45672;51.612;5.536;2023-04-25T14:01:53;3.20;;;1.35;;
59786;SDS011;45672;51.612;5.536;2023-04-25T14:04:18;2.83;;;1.45;;
59786;SDS011;45672;51.612;5.536;2023-04-25T14:06:44;7.03;;;2.75;;
59786;SDS011;45672;51.612;5.536;2023-04-25T14:09:09;5.22;;;1.73;;
59786;SDS011;45672;51.612;5.536;2023-04-25T14:11:38;6.05;;;1.58;;
59786;SDS011;45672;51.612;5.536;2023-04-25T14:14:04;6.97;;;1.60;;
59786;SDS011;45672;51.612;5.536;2023-04-25T14:16:29;5.43;;;1.75;;
59786;SDS011;45672;51.612;5.536;2023-04-25T14:18:57;2.60;;;1.25;;
59786;SDS011;45672;51.612;5.536;2023-04-25T14:21:23;6.32;;;1.17;;
59786;SDS011;45672;51.612;5.536;2023-04-25T14:23:48;2.05;;;1.20;;
59786;SDS011;45672;51.612;5.536;2023-04-25T14:26:13;3.75;;;1.30;;
59786;SDS011;45672;51.612;5.536;2023-04-25T14:28:39;5.03;;;1.77;;
59786;SDS011;45672;51.612;5.536;2023-04-25T14:31:04;5.97;;;1.67;;
59786;SDS011;45672;51.612;5.536;2023-04-25T14:33:30;2.08;;;1.27;;
59786;SDS011;45672;51.612;5.536;2023-04-25T14:35:55;5.60;;;1.65;;
59786;SDS011;45672;51.612;5.536;2023-04-25T14:38:21;5.28;;;1.60;;
59786;SDS011;45672;51.612;5.536;2023-04-25T14:40:48;5.20;;;1.55;;
59786;SDS011;45672;51.612;5.536;2023-04-25T14:43:14;4.97;;;1.60;;
59786;SDS011;45672;51.612;5.536;2023-04-25T14:45:39;4.20;;;1.50;;